createdAt,value
2018-08-11T00:02:02.735Z,96.40
2018-08-11T00:04:30.242Z,96.50
2018-08-11T00:06:57.705Z,96.30
2018-08-11T00:09:25.208Z,96.10
2018-08-11T00:11:52.783Z,96.20
2018-08-11T00:14:20.245Z,96.40
2018-08-11T00:16:47.708Z,96.40
2018-08-11T00:19:15.180Z,96.30
2018-08-11T00:21:42.775Z,96.50
2018-08-11T00:24:10.438Z,96.40
2018-08-11T00:26:37.927Z,96.50
2018-08-11T00:29:05.528Z,96.50
2018-08-11T00:31:33.575Z,96.60
2018-08-11T00:34:01.500Z,96.60
2018-08-11T00:36:29.502Z,96.60
2018-08-11T00:38:57.579Z,96.70
2018-08-11T00:41:25.709Z,96.60
2018-08-11T00:43:53.877Z,96.70
2018-08-11T00:46:21.425Z,96.80
2018-08-11T00:48:48.945Z,96.80
2018-08-11T00:51:16.466Z,96.90
2018-08-11T00:53:43.991Z,97.00
2018-08-11T00:56:11.515Z,97.20
2018-08-11T00:58:39.216Z,97.30
2018-08-11T01:01:06.709Z,97.30
2018-08-11T01:03:34.280Z,97.30
2018-08-11T01:06:01.691Z,97.40
2018-08-11T01:08:29.240Z,97.50
2018-08-11T01:10:56.737Z,97.60
2018-08-11T01:13:24.157Z,97.50
2018-08-11T01:15:51.666Z,97.50
2018-08-11T01:18:19.132Z,97.50
2018-08-11T01:20:46.603Z,97.50
2018-08-11T01:23:14.051Z,97.30
2018-08-11T01:25:41.542Z,97.30
2018-08-11T01:28:08.996Z,97.30
2018-08-11T01:30:36.427Z,97.40
2018-08-11T01:33:03.952Z,97.40
2018-08-11T01:35:31.539Z,97.40
2018-08-11T01:37:59.077Z,97.50
2018-08-11T01:40:26.646Z,97.80
2018-08-11T01:42:54.104Z,97.60
2018-08-11T01:45:21.583Z,97.60
2018-08-11T01:47:49.091Z,97.60
2018-08-11T01:50:16.752Z,97.30
2018-08-11T01:52:45.420Z,97.60
2018-08-11T01:55:14.439Z,97.40
2018-08-11T01:57:42.011Z,97.40
2018-08-11T02:00:11.286Z,97.30
2018-08-11T02:02:39.143Z,97.30
2018-08-11T02:05:07.474Z,97.10
2018-08-11T02:07:35.091Z,97.10
2018-08-11T02:10:02.647Z,97.10
2018-08-11T02:12:30.277Z,97.20
2018-08-11T02:14:57.750Z,97.00
2018-08-11T02:17:25.208Z,97.10
2018-08-11T02:19:52.720Z,97.10
2018-08-11T02:22:20.215Z,97.20
2018-08-11T02:24:49.928Z,97.30
2018-08-11T02:27:17.339Z,97.40
2018-08-11T02:29:44.921Z,97.40
2018-08-11T02:32:12.383Z,97.50
2018-08-11T02:34:39.796Z,97.50
2018-08-11T02:37:07.255Z,97.60
2018-08-11T02:39:34.729Z,97.70
2018-08-11T02:42:02.299Z,97.80
2018-08-11T02:44:29.880Z,97.80
2018-08-11T02:46:57.355Z,97.90
2018-08-11T02:49:24.830Z,98.00
2018-08-11T02:51:52.358Z,98.00
2018-08-11T02:54:19.834Z,98.00
2018-08-11T02:56:47.399Z,98.00
2018-08-11T02:59:19.423Z,98.00
2018-08-11T03:01:46.913Z,98.20
2018-08-11T03:04:14.311Z,98.00
2018-08-11T03:06:41.779Z,98.00
2018-08-11T03:09:09.434Z,98.10
2018-08-11T03:11:36.857Z,98.10
2018-08-11T03:14:04.455Z,98.20
2018-08-11T03:16:31.992Z,98.30
2018-08-11T03:18:59.795Z,98.40
2018-08-11T03:21:27.379Z,98.50
2018-08-11T03:23:54.809Z,98.40
2018-08-11T03:26:22.335Z,98.50
2018-08-11T03:28:49.810Z,98.50
2018-08-11T03:31:17.306Z,98.30
2018-08-11T03:33:44.711Z,98.30
2018-08-11T03:36:12.143Z,98.50
2018-08-11T03:38:39.599Z,98.40
2018-08-11T03:41:07.027Z,98.40
2018-08-11T03:43:34.530Z,98.40
2018-08-11T03:46:02.132Z,98.40
2018-08-11T03:48:29.507Z,98.50
2018-08-11T03:50:56.979Z,98.30
2018-08-11T03:53:24.482Z,98.20
2018-08-11T03:55:52.035Z,98.00
2018-08-11T03:58:19.497Z,98.00
2018-08-11T04:00:46.937Z,97.90
2018-08-11T04:03:14.379Z,98.00
2018-08-11T04:05:41.840Z,98.00
2018-08-11T04:08:09.297Z,98.00
2018-08-11T04:10:36.812Z,98.10
2018-08-11T04:13:04.301Z,98.10
2018-08-11T04:15:31.808Z,98.20
2018-08-11T04:17:59.319Z,97.90
2018-08-11T04:20:26.763Z,97.90
2018-08-11T04:22:54.202Z,98.00
2018-08-11T04:25:21.750Z,98.00
2018-08-11T04:27:49.166Z,97.80
2018-08-11T04:30:16.607Z,97.80
2018-08-11T04:32:47.662Z,97.80
2018-08-11T04:35:15.247Z,97.70
2018-08-11T04:37:42.739Z,97.70
2018-08-11T04:40:10.195Z,97.70
2018-08-11T04:42:37.750Z,97.60
2018-08-11T04:45:05.638Z,97.70
2018-08-11T04:47:33.255Z,97.80
2018-08-11T04:50:00.705Z,97.80
2018-08-11T04:52:28.128Z,97.80
2018-08-11T04:54:55.685Z,97.90
2018-08-11T04:57:23.233Z,97.80
2018-08-11T04:59:50.655Z,97.70
2018-08-11T05:02:18.080Z,97.60
2018-08-11T05:04:45.573Z,97.60
2018-08-11T05:07:13.039Z,97.70
2018-08-11T05:09:40.434Z,97.70
2018-08-11T05:12:07.940Z,97.70
2018-08-11T05:14:35.410Z,97.70
2018-08-11T05:17:02.963Z,97.70
2018-08-11T05:19:30.391Z,97.70
2018-08-11T05:21:57.851Z,97.50
2018-08-11T05:24:25.274Z,97.60
2018-08-11T05:26:52.796Z,97.70
2018-08-11T05:29:20.298Z,97.80
2018-08-11T05:31:47.772Z,97.80
2018-08-11T05:34:15.239Z,97.80
2018-08-11T05:36:42.688Z,97.90
2018-08-11T05:39:12.399Z,97.70
2018-08-11T05:41:40.036Z,97.70
2018-08-11T05:44:07.535Z,97.50
2018-08-11T05:46:34.983Z,97.60
2018-08-11T05:49:03.471Z,97.70
2018-08-11T05:51:31.193Z,97.70
2018-08-11T05:53:58.807Z,97.40
2018-08-11T05:56:26.268Z,97.50
2018-08-11T05:58:53.769Z,97.40
2018-08-11T06:01:21.452Z,97.40
2018-08-11T06:03:49.171Z,97.30
2018-08-11T06:06:16.652Z,97.20
2018-08-11T06:08:44.079Z,97.40
2018-08-11T06:11:12.065Z,97.40
2018-08-11T06:13:39.653Z,97.00
2018-08-11T06:16:07.099Z,97.00
2018-08-11T06:18:38.193Z,97.10
2018-08-11T06:21:05.692Z,97.10
2018-08-11T06:23:33.327Z,97.20
2018-08-11T06:26:01.019Z,97.60
2018-08-11T06:28:28.594Z,98.70
2018-08-11T06:30:56.102Z,98.80
2018-08-11T06:33:24.401Z,98.70
2018-08-11T06:35:51.971Z,98.90
2018-08-11T06:38:19.445Z,98.80
2018-08-11T06:40:46.899Z,98.90
2018-08-11T06:43:17.060Z,98.90
2018-08-11T06:45:44.482Z,98.90
2018-08-11T06:48:12.042Z,98.70
2018-08-11T06:50:39.537Z,98.70
2018-08-11T06:53:07.078Z,98.70
2018-08-11T06:55:34.622Z,98.70
2018-08-11T06:58:02.058Z,98.50
2018-08-11T07:00:30.145Z,98.50
2018-08-11T07:02:57.913Z,98.50
2018-08-11T07:05:25.343Z,98.40
2018-08-11T07:07:52.848Z,98.20
2018-08-11T07:10:20.516Z,98.20
2018-08-11T07:12:48.088Z,98.20
2018-08-11T07:15:15.903Z,98.10
2018-08-11T07:17:43.517Z,97.20
2018-08-11T07:20:11.169Z,97.40
2018-08-11T07:22:38.673Z,98.20
2018-08-11T07:25:06.541Z,98.50
2018-08-11T07:27:34.019Z,98.40
2018-08-11T07:30:01.605Z,98.60
2018-08-11T07:32:29.124Z,98.60
2018-08-11T07:34:56.622Z,98.70
2018-08-11T07:37:24.227Z,98.50
2018-08-11T07:39:51.688Z,98.50
2018-08-11T07:42:19.130Z,98.20
2018-08-11T07:44:46.634Z,98.20
2018-08-11T07:47:14.195Z,97.80
2018-08-11T07:49:41.624Z,97.90
2018-08-11T07:52:09.319Z,97.90
2018-08-11T07:54:36.860Z,97.70
2018-08-11T07:57:04.427Z,97.70
2018-08-11T07:59:31.939Z,97.70
2018-08-11T08:02:01.891Z,97.60
2018-08-11T08:04:36.283Z,97.00
2018-08-11T08:07:03.815Z,96.80
2018-08-11T08:09:31.404Z,96.50
2018-08-11T08:11:58.996Z,96.10
2018-08-11T08:14:30.640Z,96.10
2018-08-11T08:16:58.228Z,95.10
2018-08-11T08:19:25.912Z,95.20
2018-08-11T08:21:53.494Z,95.20
2018-08-11T08:24:21.042Z,94.90
2018-08-11T08:26:48.589Z,94.90
2018-08-11T08:29:16.139Z,94.90
2018-08-11T08:31:43.605Z,94.90
2018-08-11T08:34:11.131Z,94.10
2018-08-11T08:36:38.646Z,94.00
2018-08-11T08:39:08.023Z,93.10
2018-08-11T08:41:35.535Z,93.20
2018-08-11T08:44:03.099Z,93.00
2018-08-11T08:46:31.457Z,92.50
2018-08-11T08:49:00.959Z,92.60
2018-08-11T08:51:28.439Z,92.50
2018-08-11T08:53:55.973Z,92.50
2018-08-11T08:56:23.482Z,92.50
2018-08-11T08:58:50.991Z,92.50
2018-08-11T09:01:18.573Z,91.60
2018-08-11T09:03:51.023Z,91.90
2018-08-11T09:06:18.739Z,91.90
2018-08-11T09:08:46.165Z,92.00
2018-08-11T09:11:13.596Z,92.00
2018-08-11T09:13:41.084Z,92.10
2018-08-11T09:16:08.868Z,92.20
2018-08-11T09:18:36.372Z,92.30
2018-08-11T09:21:03.932Z,92.20
2018-08-11T09:23:31.356Z,92.10
2018-08-11T09:25:58.860Z,91.90
2018-08-11T09:28:26.342Z,90.80
2018-08-11T09:30:53.835Z,90.90
2018-08-11T09:33:21.429Z,90.90
2018-08-11T09:35:48.908Z,90.90
2018-08-11T09:38:16.406Z,90.90
2018-08-11T09:40:43.871Z,90.90
2018-08-11T09:43:11.418Z,90.80
2018-08-11T09:45:39.038Z,90.80
2018-08-11T09:48:06.443Z,90.80
2018-08-11T09:50:33.864Z,90.80
2018-08-11T09:53:01.308Z,90.70
2018-08-11T09:55:29.180Z,90.70
2018-08-11T09:57:56.760Z,90.70
2018-08-11T10:00:30.125Z,90.50
2018-08-11T10:02:59.873Z,89.80
2018-08-11T10:05:28.128Z,89.90
2018-08-11T10:07:55.635Z,89.90
2018-08-11T10:10:23.092Z,88.60
2018-08-11T10:12:50.597Z,88.50
2018-08-11T10:15:18.283Z,87.00
2018-08-11T10:17:45.759Z,86.90
2018-08-11T10:20:13.232Z,86.80
2018-08-11T10:22:40.719Z,85.20
2018-08-11T10:25:08.243Z,85.40
2018-08-11T10:27:35.675Z,85.30
2018-08-11T10:30:05.779Z,85.20
2018-08-11T10:32:33.291Z,85.20
2018-08-11T10:35:00.807Z,84.50
2018-08-11T10:37:28.308Z,84.50
2018-08-11T10:39:55.837Z,84.60
2018-08-11T10:42:23.295Z,84.70
2018-08-11T10:44:50.746Z,84.60
2018-08-11T10:47:18.201Z,84.50
2018-08-11T10:49:46.044Z,84.30
2018-08-11T10:52:14.642Z,83.60
2018-08-11T10:54:42.399Z,83.10
2018-08-11T10:57:10.146Z,80.40
2018-08-11T10:59:37.686Z,79.50
2018-08-11T11:02:05.164Z,80.00
2018-08-11T11:04:32.797Z,80.30
2018-08-11T11:07:00.361Z,80.60
2018-08-11T11:09:27.854Z,80.80
2018-08-11T11:11:55.346Z,80.70
2018-08-11T11:14:22.853Z,80.80
2018-08-11T11:16:50.403Z,80.90
2018-08-11T11:19:18.008Z,80.90
2018-08-11T11:21:45.498Z,80.90
2018-08-11T11:24:13.018Z,82.20
2018-08-11T11:26:40.638Z,82.40
2018-08-11T11:29:08.649Z,82.30
2018-08-11T11:31:36.317Z,81.70
2018-08-11T11:34:04.023Z,79.60
2018-08-11T11:36:31.566Z,77.80
2018-08-11T11:38:59.186Z,78.30
2018-08-11T11:41:26.709Z,78.30
2018-08-11T11:43:54.247Z,76.60
2018-08-11T11:46:21.656Z,76.60
2018-08-11T11:48:49.087Z,74.50
2018-08-11T11:51:16.563Z,74.40
2018-08-11T11:53:44.180Z,74.60
2018-08-11T11:56:11.674Z,71.90
2018-08-11T11:58:39.173Z,71.20
2018-08-11T12:01:06.871Z,69.10
2018-08-11T12:03:34.392Z,65.50
2018-08-11T12:06:01.835Z,64.70
2018-08-11T12:08:29.438Z,63.70
2018-08-11T12:10:56.895Z,62.70
2018-08-11T12:13:24.511Z,61.80
2018-08-11T12:15:51.962Z,59.50
2018-08-11T12:18:19.497Z,59.70
2018-08-11T12:20:46.947Z,59.90
2018-08-11T12:23:14.460Z,60.30
2018-08-11T12:25:41.923Z,62.80
2018-08-11T12:28:09.752Z,62.90
2018-08-11T12:30:37.226Z,63.90
2018-08-11T12:33:04.706Z,65.20
2018-08-11T12:35:32.638Z,65.90
2018-08-11T12:38:01.268Z,66.40
2018-08-11T12:40:28.750Z,67.90
2018-08-11T12:42:56.207Z,66.70
2018-08-11T12:45:23.702Z,66.60
2018-08-11T12:47:51.182Z,66.50
2018-08-11T12:50:18.626Z,66.90
2018-08-11T12:52:46.238Z,66.90
2018-08-11T12:55:13.690Z,66.80
2018-08-11T12:57:41.172Z,66.60
2018-08-11T13:00:09.758Z,64.40
2018-08-11T13:02:37.551Z,64.30
2018-08-11T13:07:38.636Z,65.60
2018-08-11T13:10:06.592Z,65.60
2018-08-11T13:12:34.519Z,65.90
2018-08-11T13:15:02.098Z,66.10
2018-08-11T13:17:31.993Z,66.30
2018-08-11T13:19:59.474Z,66.50
2018-08-11T13:22:27.203Z,65.10
2018-08-11T13:24:54.715Z,65.60
2018-08-11T13:27:22.252Z,65.70
2018-08-11T13:29:50.870Z,67.00
2018-08-11T13:32:18.551Z,68.10
2018-08-11T13:34:46.032Z,69.00
2018-08-11T13:37:13.920Z,71.90
2018-08-11T13:39:51.479Z,70.00
2018-08-11T13:42:19.601Z,70.80
2018-08-11T13:44:49.123Z,69.20
2018-08-11T13:50:05.447Z,69.00
2018-08-11T13:52:33.428Z,67.90
2018-08-11T13:55:01.618Z,67.60
2018-08-11T13:57:29.059Z,68.10
2018-08-11T13:59:56.718Z,68.40
2018-08-11T14:02:24.418Z,68.60
2018-08-11T14:04:56.265Z,68.70
2018-08-11T14:07:41.477Z,68.80
2018-08-11T14:10:11.310Z,69.00
2018-08-11T14:12:51.056Z,68.80
2018-08-11T14:15:19.880Z,67.30
2018-08-11T14:17:48.364Z,68.50
2018-08-11T14:20:17.277Z,67.50
2018-08-11T14:22:54.786Z,67.30
2018-08-11T14:25:35.748Z,67.30
2018-08-11T14:28:12.172Z,66.20
2018-08-11T14:30:42.550Z,66.10
2018-08-11T14:33:11.628Z,65.90
2018-08-11T14:35:45.998Z,66.10
2018-08-11T14:38:14.355Z,67.00
2018-08-11T14:40:43.119Z,67.20
2018-08-11T14:43:11.486Z,67.90
2018-08-11T14:45:41.608Z,68.60
2018-08-11T14:48:09.884Z,70.30
2018-08-11T14:50:39.707Z,70.80
2018-08-11T14:53:11.688Z,70.40
2018-08-11T14:55:41.390Z,70.10
2018-08-11T14:58:10.382Z,70.50
2018-08-11T15:00:38.658Z,71.50
2018-08-11T15:03:08.818Z,71.80
2018-08-11T15:05:37.723Z,73.40
2018-08-11T15:08:07.868Z,73.90
2018-08-11T15:10:36.396Z,74.10
2018-08-11T15:13:10.012Z,74.40
2018-08-11T15:15:39.667Z,75.30
2018-08-11T15:18:11.754Z,76.10
2018-08-11T15:20:40.741Z,76.30
2018-08-11T15:23:10.563Z,75.80
2018-08-11T15:25:43.045Z,77.30
2018-08-11T15:28:12.185Z,77.60
2018-08-11T15:30:40.664Z,78.10
2018-08-11T15:33:09.232Z,78.30
2018-08-11T15:35:39.502Z,78.30
2018-08-11T15:38:08.809Z,78.70
2018-08-11T15:40:38.146Z,77.60
2018-08-11T15:43:06.767Z,78.20
2018-08-11T15:45:35.663Z,78.50
2018-08-11T15:48:04.882Z,79.10
2018-08-11T15:50:34.393Z,78.80
2018-08-11T15:53:03.003Z,79.60
2018-08-11T15:55:31.508Z,79.70
2018-08-11T15:58:00.342Z,79.60
2018-08-11T16:00:31.182Z,78.60
2018-08-11T16:03:00.856Z,78.80
2018-08-11T16:05:29.190Z,79.00
2018-08-11T16:08:03.435Z,79.50
2018-08-11T16:10:34.120Z,79.40
2018-08-11T16:13:02.618Z,80.30
2018-08-11T16:15:31.425Z,79.70
2018-08-11T16:18:00.537Z,80.30
2018-08-11T16:20:30.450Z,80.40
2018-08-11T16:23:00.052Z,80.20
2018-08-11T16:25:28.652Z,80.10
2018-08-11T16:27:58.559Z,80.20
2018-08-11T16:30:27.055Z,80.20
2018-08-11T16:32:56.194Z,80.20
2018-08-11T16:35:24.630Z,79.90
2018-08-11T16:37:53.917Z,79.40
2018-08-11T16:40:28.102Z,79.80
2018-08-11T16:42:57.197Z,79.80
2018-08-11T16:45:27.366Z,79.90
2018-08-11T16:47:56.388Z,80.00
2018-08-11T16:50:25.788Z,79.10
2018-08-11T16:52:54.038Z,80.30
2018-08-11T16:55:21.723Z,79.50
2018-08-11T16:57:50.991Z,80.00
2018-08-11T17:00:18.575Z,79.50
2018-08-11T17:02:46.295Z,79.70
2018-08-11T17:05:14.354Z,80.00
2018-08-11T17:07:47.227Z,80.20
2018-08-11T17:10:14.942Z,79.90
2018-08-11T17:12:42.552Z,79.40
2018-08-11T17:15:11.596Z,79.60
2018-08-11T17:17:39.550Z,79.60
2018-08-11T17:20:08.040Z,79.00
2018-08-11T17:22:36.997Z,80.30
2018-08-11T17:25:05.893Z,80.30
2018-08-11T17:27:33.720Z,79.60
2018-08-11T17:30:01.301Z,81.00
2018-08-11T17:32:28.753Z,80.50
2018-08-11T17:34:56.485Z,80.70
2018-08-11T17:37:24.133Z,80.80
2018-08-11T17:39:51.847Z,80.90
2018-08-11T17:42:19.404Z,81.00
2018-08-11T17:44:47.002Z,81.30
2018-08-11T17:47:14.433Z,81.40
2018-08-11T17:49:41.949Z,81.40
2018-08-11T17:52:09.399Z,81.70
2018-08-11T17:54:36.974Z,81.70
2018-08-11T17:57:04.538Z,81.80
2018-08-11T17:59:32.243Z,81.80
2018-08-11T18:01:59.794Z,81.50
2018-08-11T18:04:27.563Z,81.60
2018-08-11T18:06:55.014Z,81.60
2018-08-11T18:09:22.836Z,81.90
2018-08-11T18:11:50.352Z,81.60
2018-08-11T18:14:17.968Z,81.80
2018-08-11T18:16:45.419Z,82.10
2018-08-11T18:19:12.845Z,82.60
2018-08-11T18:21:40.381Z,83.60
2018-08-11T18:24:07.939Z,83.80
2018-08-11T18:26:35.466Z,84.00
2018-08-11T18:29:03.069Z,83.60
2018-08-11T18:31:30.758Z,83.80
2018-08-11T18:33:58.250Z,84.30
2018-08-11T18:36:25.732Z,84.80
2018-08-11T18:38:53.243Z,85.50
2018-08-11T18:41:20.714Z,85.70
2018-08-11T18:43:48.275Z,85.70
2018-08-11T18:46:24.264Z,86.10
2018-08-11T18:48:51.846Z,85.80
2018-08-11T18:51:19.412Z,87.00
2018-08-11T18:53:46.878Z,87.40
2018-08-11T18:56:15.481Z,87.30
2018-08-11T18:58:43.018Z,86.60
2018-08-11T19:01:10.484Z,87.00
2018-08-11T19:03:38.059Z,88.90
2018-08-11T19:06:05.651Z,88.30
2018-08-11T19:08:33.127Z,88.60
2018-08-11T19:11:00.623Z,88.90
2018-08-11T19:13:28.181Z,88.80
2018-08-11T19:15:55.776Z,89.00
2018-08-11T19:18:23.269Z,89.30
2018-08-11T19:20:50.777Z,89.50
2018-08-11T19:23:18.247Z,89.80
2018-08-11T19:25:45.858Z,89.80
2018-08-11T19:28:13.197Z,89.90
2018-08-11T19:30:40.687Z,89.90
2018-08-11T19:33:08.207Z,90.00
2018-08-11T19:35:35.814Z,90.20
2018-08-11T19:38:04.049Z,90.30
2018-08-11T19:40:31.528Z,89.70
2018-08-11T19:42:59.103Z,90.00
2018-08-11T19:45:27.020Z,90.50
2018-08-11T19:47:54.759Z,90.30
2018-08-11T19:50:22.995Z,90.40
2018-08-11T19:52:50.775Z,90.40
2018-08-11T19:55:18.295Z,90.40
2018-08-11T19:57:45.872Z,90.40
2018-08-11T20:00:14.426Z,90.60
2018-08-11T20:02:42.804Z,90.30
2018-08-11T20:05:11.683Z,90.50
2018-08-11T20:07:39.779Z,90.80
2018-08-11T20:10:07.966Z,90.90
2018-08-11T20:12:37.398Z,91.00
2018-08-11T20:15:06.349Z,91.00
2018-08-11T20:17:35.170Z,91.10
2018-08-11T20:20:03.638Z,91.40
2018-08-11T20:22:31.411Z,91.60
2018-08-11T20:24:59.158Z,91.50
2018-08-11T20:27:27.842Z,91.80
2018-08-11T20:29:57.107Z,91.90
2018-08-11T20:32:27.180Z,92.00
2018-08-11T20:34:54.896Z,92.00
2018-08-11T20:37:22.796Z,91.80
2018-08-11T20:39:50.719Z,92.10
2018-08-11T20:42:20.871Z,92.20
2018-08-11T20:44:48.700Z,92.10
2018-08-11T20:47:16.807Z,92.10
2018-08-11T20:49:45.027Z,92.10
2018-08-11T20:52:13.564Z,92.20
2018-08-11T20:54:41.630Z,92.30
2018-08-11T20:57:10.645Z,92.10
2018-08-11T20:59:38.902Z,92.10
2018-08-11T21:02:07.601Z,92.20
2018-08-11T21:04:35.562Z,92.40
2018-08-11T21:07:03.159Z,92.20
2018-08-11T21:09:31.341Z,92.40
2018-08-11T21:12:00.474Z,92.60
2018-08-11T21:14:28.771Z,92.50
2018-08-11T21:16:57.299Z,92.50
2018-08-11T21:19:25.307Z,92.60
2018-08-11T21:21:52.824Z,92.60
2018-08-11T21:24:20.590Z,92.70
2018-08-11T21:26:48.365Z,92.60
2018-08-11T21:29:16.245Z,92.80
2018-08-11T21:31:44.051Z,92.80
2018-08-11T21:34:11.556Z,92.90
2018-08-11T21:36:39.892Z,92.90
2018-08-11T21:39:10.079Z,93.00
2018-08-11T21:41:39.257Z,93.10
2018-08-11T21:44:07.166Z,93.20
2018-08-11T21:46:35.610Z,93.20
2018-08-11T21:49:03.287Z,93.40
2018-08-11T21:51:30.802Z,93.50
2018-08-11T21:53:58.271Z,93.50
2018-08-11T21:56:25.835Z,93.70
2018-08-11T21:58:55.422Z,93.60
2018-08-11T22:01:23.295Z,93.70
2018-08-11T22:03:50.808Z,93.80
2018-08-11T22:06:18.304Z,93.80
2018-08-11T22:08:45.730Z,94.10
2018-08-11T22:11:13.439Z,94.10
2018-08-11T22:13:40.972Z,94.20
2018-08-11T22:16:08.603Z,94.20
2018-08-11T22:18:36.356Z,94.30
2018-08-11T22:21:04.412Z,94.40
2018-08-11T22:23:32.186Z,94.20
2018-08-11T22:25:59.761Z,94.40
2018-08-11T22:28:27.463Z,94.50
2018-08-11T22:30:54.937Z,94.60
2018-08-11T22:33:22.422Z,94.80
2018-08-11T22:35:49.905Z,94.70
2018-08-11T22:38:17.307Z,94.90
2018-08-11T22:40:44.954Z,95.00
2018-08-11T22:43:12.573Z,95.00
2018-08-11T22:45:40.179Z,95.10
2018-08-11T22:48:07.622Z,95.10
2018-08-11T22:50:35.109Z,95.30
2018-08-11T22:53:02.799Z,95.40
2018-08-11T22:55:31.175Z,95.40
2018-08-11T22:57:58.647Z,95.60
2018-08-11T23:00:26.299Z,95.60
2018-08-11T23:02:53.826Z,95.60
2018-08-11T23:05:21.835Z,95.60
2018-08-11T23:07:49.346Z,95.60
2018-08-11T23:10:17.327Z,95.70
2018-08-11T23:12:45.385Z,95.70
2018-08-11T23:15:14.215Z,95.80
2018-08-11T23:17:43.258Z,95.90
2018-08-11T23:20:10.863Z,96.00
2018-08-11T23:22:38.388Z,96.00
2018-08-11T23:25:06.768Z,96.00
2018-08-11T23:27:34.675Z,96.10
2018-08-11T23:30:02.337Z,96.20
2018-08-11T23:32:29.813Z,96.10
2018-08-11T23:34:57.587Z,96.20
2018-08-11T23:37:26.221Z,96.20
2018-08-11T23:39:53.738Z,96.30
2018-08-11T23:42:21.190Z,96.40
2018-08-11T23:44:48.652Z,96.50
2018-08-11T23:47:16.190Z,96.50
2018-08-11T23:49:43.696Z,96.80
2018-08-11T23:52:11.222Z,97.00
2018-08-11T23:54:38.682Z,97.00
2018-08-11T23:57:06.381Z,97.10
2018-08-11T23:59:34.032Z,97.20
